sensor_id;sensor_type;location;lat;lon;timestamp;P1;durP1;ratioP1;P2;durP2;ratioP2
25980;SDS011;13772;52.996;9.124;2023-12-22T08:36:45;13.60;;;3.22;;
25980;SDS011;13772;52.996;9.124;2023-12-22T08:39:10;15.05;;;3.22;;
25980;SDS011;13772;52.996;9.124;2023-12-22T08:41:35;14.32;;;2.90;;
25980;SDS011;13772;52.996;9.124;2023-12-22T08:44:05;15.55;;;2.75;;
25980;SDS011;13772;52.996;9.124;2023-12-22T08:46:31;14.68;;;3.25;;
25980;SDS011;13772;52.996;9.124;2023-12-22T08:48:56;13.35;;;2.92;;
25980;SDS011;13772;52.996;9.124;2023-12-22T08:51:21;13.77;;;2.40;;
25980;SDS011;13772;52.996;9.124;2023-12-22T08:53:46;15.20;;;2.58;;
25980;SDS011;13772;52.996;9.124;2023-12-22T08:56:12;16.38;;;2.78;;
25980;SDS011;13772;52.996;9.124;2023-12-22T08:58:37;12.80;;;2.10;;
25980;SDS011;13772;52.996;9.124;2023-12-22T09:01:02;10.90;;;2.00;;
25980;SDS011;13772;52.996;9.124;2023-12-22T09:03:27;17.08;;;2.85;;
25980;SDS011;13772;52.996;9.124;2023-12-22T09:05:53;13.73;;;2.17;;
25980;SDS011;13772;52.996;9.124;2023-12-22T09:08:19;12.65;;;2.83;;
25980;SDS011;13772;52.996;9.124;2023-12-22T09:10:44;16.35;;;2.85;;
25980;SDS011;13772;52.996;9.124;2023-12-22T09:13:10;17.73;;;3.83;;
25980;SDS011;13772;52.996;9.124;2023-12-22T09:15:36;18.75;;;3.22;;
25980;SDS011;13772;52.996;9.124;2023-12-22T09:18:01;18.38;;;2.95;;
25980;SDS011;13772;52.996;9.124;2023-12-22T09:20:27;20.42;;;3.45;;
25980;SDS011;13772;52.996;9.124;2023-12-22T09:22:54;16.80;;;2.75;;
25980;SDS011;13772;52.996;9.124;2023-12-22T09:25:19;14.02;;;2.63;;
25980;SDS011;13772;52.996;9.124;2023-12-22T09:27:44;15.02;;;2.70;;
25980;SDS011;13772;52.996;9.124;2023-12-22T09:30:10;10.02;;;2.50;;
25980;SDS011;13772;52.996;9.124;2023-12-22T09:32:35;8.88;;;2.10;;
25980;SDS011;13772;52.996;9.124;2023-12-22T09:35:00;9.02;;;1.80;;
25980;SDS011;13772;52.996;9.124;2023-12-22T09:37:26;12.77;;;1.88;;
25980;SDS011;13772;52.996;9.124;2023-12-22T09:39:51;12.63;;;2.60;;
25980;SDS011;13772;52.996;9.124;2023-12-22T09:42:16;12.90;;;2.30;;
25980;SDS011;13772;52.996;9.124;2023-12-22T09:44:42;5.35;;;1.55;;
25980;SDS011;13772;52.996;9.124;2023-12-22T09:47:07;9.68;;;2.28;;
25980;SDS011;13772;52.996;9.124;2023-12-22T09:49:34;14.07;;;1.92;;
25980;SDS011;13772;52.996;9.124;2023-12-22T09:52:01;8.57;;;1.73;;
25980;SDS011;13772;52.996;9.124;2023-12-22T09:54:28;13.13;;;1.95;;
25980;SDS011;13772;52.996;9.124;2023-12-22T09:56:53;14.13;;;1.48;;
25980;SDS011;13772;52.996;9.124;2023-12-22T09:59:19;7.60;;;1.63;;
25980;SDS011;13772;52.996;9.124;2023-12-22T10:01:44;9.90;;;1.80;;
25980;SDS011;13772;52.996;9.124;2023-12-22T10:04:12;10.50;;;1.58;;
25980;SDS011;13772;52.996;9.124;2023-12-22T10:06:38;10.10;;;2.08;;
25980;SDS011;13772;52.996;9.124;2023-12-22T10:09:04;11.73;;;2.13;;
25980;SDS011;13772;52.996;9.124;2023-12-22T10:11:31;9.70;;;1.88;;
25980;SDS011;13772;52.996;9.124;2023-12-22T10:13:56;9.52;;;2.20;;
25980;SDS011;13772;52.996;9.124;2023-12-22T10:16:22;14.20;;;1.98;;
25980;SDS011;13772;52.996;9.124;2023-12-22T10:18:47;11.23;;;1.60;;
25980;SDS011;13772;52.996;9.124;2023-12-22T10:21:13;10.02;;;1.45;;
25980;SDS011;13772;52.996;9.124;2023-12-22T10:23:38;11.77;;;1.95;;
25980;SDS011;13772;52.996;9.124;2023-12-22T10:26:03;11.30;;;1.90;;
25980;SDS011;13772;52.996;9.124;2023-12-22T10:28:29;10.82;;;1.95;;
25980;SDS011;13772;52.996;9.124;2023-12-22T10:30:54;17.48;;;3.28;;
25980;SDS011;13772;52.996;9.124;2023-12-22T10:33:22;12.45;;;2.45;;
25980;SDS011;13772;52.996;9.124;2023-12-22T10:35:47;16.23;;;2.10;;
25980;SDS011;13772;52.996;9.124;2023-12-22T10:38:17;8.90;;;1.83;;
25980;SDS011;13772;52.996;9.124;2023-12-22T10:40:42;10.93;;;2.10;;
25980;SDS011;13772;52.996;9.124;2023-12-22T10:43:07;13.00;;;1.73;;
25980;SDS011;13772;52.996;9.124;2023-12-22T10:45:33;10.48;;;2.08;;
25980;SDS011;13772;52.996;9.124;2023-12-22T10:47:58;10.18;;;1.77;;
25980;SDS011;13772;52.996;9.124;2023-12-22T10:50:24;10.68;;;1.67;;
25980;SDS011;13772;52.996;9.124;2023-12-22T10:52:50;7.65;;;1.20;;
25980;SDS011;13772;52.996;9.124;2023-12-22T10:55:16;7.22;;;1.30;;
25980;SDS011;13772;52.996;9.124;2023-12-22T10:57:41;6.75;;;2.20;;
25980;SDS011;13772;52.996;9.124;2023-12-22T11:00:06;11.82;;;1.50;;
25980;SDS011;13772;52.996;9.124;2023-12-22T11:02:35;10.97;;;1.43;;
25980;SDS011;13772;52.996;9.124;2023-12-22T11:05:03;11.57;;;1.85;;
25980;SDS011;13772;52.996;9.124;2023-12-22T11:07:30;7.65;;;1.67;;
25980;SDS011;13772;52.996;9.124;2023-12-22T11:09:57;7.32;;;1.38;;
25980;SDS011;13772;52.996;9.124;2023-12-22T11:12:24;9.70;;;1.58;;
25980;SDS011;13772;52.996;9.124;2023-12-22T11:14:50;9.48;;;1.90;;
25980;SDS011;13772;52.996;9.124;2023-12-22T11:17:19;10.50;;;1.90;;
25980;SDS011;13772;52.996;9.124;2023-12-22T11:19:46;12.77;;;2.42;;
25980;SDS011;13772;52.996;9.124;2023-12-22T11:22:12;8.38;;;2.70;;
25980;SDS011;13772;52.996;9.124;2023-12-22T11:24:37;11.02;;;2.20;;
25980;SDS011;13772;52.996;9.124;2023-12-22T11:27:03;9.95;;;1.95;;
25980;SDS011;13772;52.996;9.124;2023-12-22T11:29:29;10.52;;;2.20;;
25980;SDS011;13772;52.996;9.124;2023-12-22T11:31:54;9.75;;;2.80;;
25980;SDS011;13772;52.996;9.124;2023-12-22T11:34:21;22.65;;;4.03;;
25980;SDS011;13772;52.996;9.124;2023-12-22T11:36:46;16.25;;;2.65;;
25980;SDS011;13772;52.996;9.124;2023-12-22T11:39:12;18.05;;;4.00;;
25980;SDS011;13772;52.996;9.124;2023-12-22T11:41:37;9.95;;;2.42;;
25980;SDS011;13772;52.996;9.124;2023-12-22T11:44:04;10.35;;;2.47;;
25980;SDS011;13772;52.996;9.124;2023-12-22T11:46:30;10.73;;;2.38;;
25980;SDS011;13772;52.996;9.124;2023-12-22T11:48:55;17.63;;;2.65;;
25980;SDS011;13772;52.996;9.124;2023-12-22T11:51:21;11.30;;;2.80;;
25980;SDS011;13772;52.996;9.124;2023-12-22T11:53:47;8.32;;;1.90;;
25980;SDS011;13772;52.996;9.124;2023-12-22T11:56:12;11.07;;;1.85;;
25980;SDS011;13772;52.996;9.124;2023-12-22T11:58:41;8.35;;;1.60;;
25980;SDS011;13772;52.996;9.124;2023-12-22T12:01:13;14.48;;;2.10;;
25980;SDS011;13772;52.996;9.124;2023-12-22T12:03:42;13.55;;;2.72;;
25980;SDS011;13772;52.996;9.124;2023-12-22T12:06:16;9.05;;;1.85;;
25980;SDS011;13772;52.996;9.124;2023-12-22T12:08:41;8.30;;;1.80;;
25980;SDS011;13772;52.996;9.124;2023-12-22T12:11:07;14.50;;;2.00;;
25980;SDS011;13772;52.996;9.124;2023-12-22T12:13:33;7.75;;;1.85;;
25980;SDS011;13772;52.996;9.124;2023-12-22T12:15:59;13.82;;;1.90;;
25980;SDS011;13772;52.996;9.124;2023-12-22T12:18:28;10.73;;;1.83;;
25980;SDS011;13772;52.996;9.124;2023-12-22T12:20:54;14.23;;;2.45;;
25980;SDS011;13772;52.996;9.124;2023-12-22T12:23:19;11.20;;;1.77;;
25980;SDS011;13772;52.996;9.124;2023-12-22T12:25:44;11.30;;;2.00;;
25980;SDS011;13772;52.996;9.124;2023-12-22T12:28:09;10.35;;;2.10;;
25980;SDS011;13772;52.996;9.124;2023-12-22T12:30:36;10.38;;;2.78;;
25980;SDS011;13772;52.996;9.124;2023-12-22T12:33:08;12.45;;;1.92;;
25980;SDS011;13772;52.996;9.124;2023-12-22T12:35:34;12.52;;;2.00;;
25980;SDS011;13772;52.996;9.124;2023-12-22T12:37:59;8.38;;;2.17;;
25980;SDS011;13772;52.996;9.124;2023-12-22T12:40:24;9.57;;;2.30;;
25980;SDS011;13772;52.996;9.124;2023-12-22T12:42:52;12.70;;;2.00;;
25980;SDS011;13772;52.996;9.124;2023-12-22T12:45:21;13.95;;;2.42;;
25980;SDS011;13772;52.996;9.124;2023-12-22T12:47:56;9.48;;;1.83;;
25980;SDS011;13772;52.996;9.124;2023-12-22T12:50:25;12.70;;;3.08;;
25980;SDS011;13772;52.996;9.124;2023-12-22T12:52:53;14.25;;;2.28;;
25980;SDS011;13772;52.996;9.124;2023-12-22T12:55:22;10.48;;;1.70;;
25980;SDS011;13772;52.996;9.124;2023-12-22T12:57:48;12.10;;;1.83;;
25980;SDS011;13772;52.996;9.124;2023-12-22T13:00:14;13.75;;;2.10;;
25980;SDS011;13772;52.996;9.124;2023-12-22T13:02:39;11.50;;;1.95;;
25980;SDS011;13772;52.996;9.124;2023-12-22T13:05:05;14.82;;;2.60;;
25980;SDS011;13772;52.996;9.124;2023-12-22T13:07:31;14.48;;;2.63;;
25980;SDS011;13772;52.996;9.124;2023-12-22T13:09:56;16.15;;;3.33;;
25980;SDS011;13772;52.996;9.124;2023-12-22T13:12:22;12.95;;;2.15;;
25980;SDS011;13772;52.996;9.124;2023-12-22T13:14:48;14.27;;;2.70;;
25980;SDS011;13772;52.996;9.124;2023-12-22T13:17:13;13.75;;;2.83;;
25980;SDS011;13772;52.996;9.124;2023-12-22T13:19:38;13.50;;;3.30;;
25980;SDS011;13772;52.996;9.124;2023-12-22T13:22:04;13.63;;;2.58;;
25980;SDS011;13772;52.996;9.124;2023-12-22T13:24:29;13.82;;;1.92;;
25980;SDS011;13772;52.996;9.124;2023-12-22T13:27:01;10.48;;;1.90;;
25980;SDS011;13772;52.996;9.124;2023-12-22T13:29:28;9.35;;;2.60;;
25980;SDS011;13772;52.996;9.124;2023-12-22T13:31:53;11.95;;;2.25;;
25980;SDS011;13772;52.996;9.124;2023-12-22T13:34:19;17.85;;;2.75;;
25980;SDS011;13772;52.996;9.124;2023-12-22T13:36:44;10.90;;;2.25;;
25980;SDS011;13772;52.996;9.124;2023-12-22T13:39:10;16.73;;;2.40;;
25980;SDS011;13772;52.996;9.124;2023-12-22T13:41:40;11.20;;;2.78;;
25980;SDS011;13772;52.996;9.124;2023-12-22T13:44:07;14.30;;;1.65;;
25980;SDS011;13772;52.996;9.124;2023-12-22T13:46:33;14.57;;;3.28;;
25980;SDS011;13772;52.996;9.124;2023-12-22T13:49:00;11.98;;;2.55;;
25980;SDS011;13772;52.996;9.124;2023-12-22T13:51:25;12.77;;;1.95;;
25980;SDS011;13772;52.996;9.124;2023-12-22T13:53:50;11.73;;;2.00;;
25980;SDS011;13772;52.996;9.124;2023-12-22T13:56:16;16.55;;;1.75;;
25980;SDS011;13772;52.996;9.124;2023-12-22T13:58:44;12.85;;;1.92;;
25980;SDS011;13772;52.996;9.124;2023-12-22T14:03:36;11.27;;;2.90;;
25980;SDS011;13772;52.996;9.124;2023-12-22T14:06:01;12.65;;;1.75;;
25980;SDS011;13772;52.996;9.124;2023-12-22T14:08:28;12.77;;;3.30;;
25980;SDS011;13772;52.996;9.124;2023-12-22T14:10:53;3.30;;;1.10;;
25980;SDS011;13772;52.996;9.124;2023-12-22T14:13:18;3.95;;;0.57;;
25980;SDS011;13772;52.996;9.124;2023-12-22T14:15:44;3.30;;;0.90;;
25980;SDS011;13772;52.996;9.124;2023-12-22T14:18:10;2.28;;;0.90;;
25980;SDS011;13772;52.996;9.124;2023-12-22T14:20:35;2.05;;;0.70;;
25980;SDS011;13772;52.996;9.124;2023-12-22T14:23:00;8.50;;;1.52;;
25980;SDS011;13772;52.996;9.124;2023-12-22T14:25:25;2.40;;;0.68;;
25980;SDS011;13772;52.996;9.124;2023-12-22T14:27:52;3.65;;;0.80;;
25980;SDS011;13772;52.996;9.124;2023-12-22T14:30:18;4.95;;;1.30;;
25980;SDS011;13772;52.996;9.124;2023-12-22T14:32:44;5.13;;;0.90;;
25980;SDS011;13772;52.996;9.124;2023-12-22T14:35:09;8.43;;;1.45;;
25980;SDS011;13772;52.996;9.124;2023-12-22T14:37:35;6.05;;;1.30;;
25980;SDS011;13772;52.996;9.124;2023-12-22T14:40:00;6.45;;;1.60;;
25980;SDS011;13772;52.996;9.124;2023-12-22T14:42:26;5.78;;;1.17;;
25980;SDS011;13772;52.996;9.124;2023-12-22T14:44:51;9.30;;;1.50;;
25980;SDS011;13772;52.996;9.124;2023-12-22T14:47:16;9.23;;;1.25;;
25980;SDS011;13772;52.996;9.124;2023-12-22T14:49:41;3.25;;;0.85;;
25980;SDS011;13772;52.996;9.124;2023-12-22T14:52:06;5.07;;;1.65;;
25980;SDS011;13772;52.996;9.124;2023-12-22T14:54:33;4.88;;;1.00;;
25980;SDS011;13772;52.996;9.124;2023-12-22T14:56:58;6.18;;;0.88;;
25980;SDS011;13772;52.996;9.124;2023-12-22T14:59:23;7.45;;;1.00;;
25980;SDS011;13772;52.996;9.124;2023-12-22T15:01:48;5.25;;;1.00;;
25980;SDS011;13772;52.996;9.124;2023-12-22T15:04:14;6.00;;;1.10;;
25980;SDS011;13772;52.996;9.124;2023-12-22T15:06:40;4.88;;;1.00;;
25980;SDS011;13772;52.996;9.124;2023-12-22T15:09:06;4.55;;;1.02;;
25980;SDS011;13772;52.996;9.124;2023-12-22T15:11:31;5.68;;;0.95;;
25980;SDS011;13772;52.996;9.124;2023-12-22T15:13:57;8.63;;;1.25;;
25980;SDS011;13772;52.996;9.124;2023-12-22T15:16:22;5.80;;;1.35;;
25980;SDS011;13772;52.996;9.124;2023-12-22T15:18:47;5.22;;;1.10;;
25980;SDS011;13772;52.996;9.124;2023-12-22T15:21:19;6.70;;;1.52;;
25980;SDS011;13772;52.996;9.124;2023-12-22T15:23:44;4.30;;;1.00;;
25980;SDS011;13772;52.996;9.124;2023-12-22T15:26:19;4.97;;;1.33;;
25980;SDS011;13772;52.996;9.124;2023-12-22T15:28:44;9.63;;;1.50;;
25980;SDS011;13772;52.996;9.124;2023-12-22T15:31:10;8.48;;;1.50;;
25980;SDS011;13772;52.996;9.124;2023-12-22T15:33:35;9.18;;;2.47;;
25980;SDS011;13772;52.996;9.124;2023-12-22T15:36:00;7.88;;;0.98;;
25980;SDS011;13772;52.996;9.124;2023-12-22T15:38:25;5.30;;;1.48;;
25980;SDS011;13772;52.996;9.124;2023-12-22T15:40:50;7.80;;;1.70;;
25980;SDS011;13772;52.996;9.124;2023-12-22T15:43:15;7.20;;;1.50;;
25980;SDS011;13772;52.996;9.124;2023-12-22T15:45:41;13.40;;;2.03;;
25980;SDS011;13772;52.996;9.124;2023-12-22T15:48:06;11.85;;;1.70;;
25980;SDS011;13772;52.996;9.124;2023-12-22T15:50:31;4.72;;;1.50;;
25980;SDS011;13772;52.996;9.124;2023-12-22T15:52:57;6.80;;;1.67;;
25980;SDS011;13772;52.996;9.124;2023-12-22T15:55:22;7.88;;;1.50;;
25980;SDS011;13772;52.996;9.124;2023-12-22T15:57:47;6.85;;;1.45;;
25980;SDS011;13772;52.996;9.124;2023-12-22T16:00:13;8.13;;;1.30;;
25980;SDS011;13772;52.996;9.124;2023-12-22T16:02:38;5.22;;;1.30;;
25980;SDS011;13772;52.996;9.124;2023-12-22T16:05:04;6.78;;;1.52;;
25980;SDS011;13772;52.996;9.124;2023-12-22T16:07:29;5.22;;;1.15;;
25980;SDS011;13772;52.996;9.124;2023-12-22T16:09:54;3.92;;;1.17;;
25980;SDS011;13772;52.996;9.124;2023-12-22T16:12:19;5.55;;;1.30;;
25980;SDS011;13772;52.996;9.124;2023-12-22T16:14:44;5.80;;;1.38;;
25980;SDS011;13772;52.996;9.124;2023-12-22T16:17:10;3.97;;;1.20;;
25980;SDS011;13772;52.996;9.124;2023-12-22T16:19:38;6.63;;;1.50;;
25980;SDS011;13772;52.996;9.124;2023-12-22T16:22:04;4.72;;;1.13;;
25980;SDS011;13772;52.996;9.124;2023-12-22T16:24:29;4.38;;;1.08;;
25980;SDS011;13772;52.996;9.124;2023-12-22T16:26:54;2.42;;;1.05;;
25980;SDS011;13772;52.996;9.124;2023-12-22T16:29:20;3.63;;;0.90;;
25980;SDS011;13772;52.996;9.124;2023-12-22T16:31:45;4.97;;;1.20;;
25980;SDS011;13772;52.996;9.124;2023-12-22T16:34:10;3.58;;;0.95;;
25980;SDS011;13772;52.996;9.124;2023-12-22T16:36:35;3.17;;;1.15;;
25980;SDS011;13772;52.996;9.124;2023-12-22T16:39:01;4.65;;;1.50;;
25980;SDS011;13772;52.996;9.124;2023-12-22T16:41:26;4.15;;;0.93;;
25980;SDS011;13772;52.996;9.124;2023-12-22T16:43:51;9.98;;;1.30;;
25980;SDS011;13772;52.996;9.124;2023-12-22T16:46:20;5.45;;;1.60;;
25980;SDS011;13772;52.996;9.124;2023-12-22T16:48:45;5.93;;;1.13;;
25980;SDS011;13772;52.996;9.124;2023-12-22T16:51:11;4.22;;;1.30;;
25980;SDS011;13772;52.996;9.124;2023-12-22T16:53:36;5.18;;;1.55;;
25980;SDS011;13772;52.996;9.124;2023-12-22T16:56:01;6.38;;;1.40;;
25980;SDS011;13772;52.996;9.124;2023-12-22T16:58:27;5.60;;;1.25;;
25980;SDS011;13772;52.996;9.124;2023-12-22T17:00:52;5.57;;;1.15;;
25980;SDS011;13772;52.996;9.124;2023-12-22T17:03:17;3.95;;;1.15;;
25980;SDS011;13772;52.996;9.124;2023-12-22T17:05:43;4.10;;;1.10;;
25980;SDS011;13772;52.996;9.124;2023-12-22T17:08:08;6.97;;;1.67;;
25980;SDS011;13772;52.996;9.124;2023-12-22T17:10:35;5.47;;;1.48;;
25980;SDS011;13772;52.996;9.124;2023-12-22T17:13:00;6.22;;;1.17;;
25980;SDS011;13772;52.996;9.124;2023-12-22T17:15:25;4.82;;;1.60;;
25980;SDS011;13772;52.996;9.124;2023-12-22T17:17:50;8.57;;;1.20;;
25980;SDS011;13772;52.996;9.124;2023-12-22T17:20:15;3.47;;;1.08;;
25980;SDS011;13772;52.996;9.124;2023-12-22T17:22:41;7.90;;;1.40;;
25980;SDS011;13772;52.996;9.124;2023-12-22T17:25:06;4.07;;;1.60;;
25980;SDS011;13772;52.996;9.124;2023-12-22T17:27:31;4.05;;;1.00;;
25980;SDS011;13772;52.996;9.124;2023-12-22T17:29:57;2.97;;;1.00;;
25980;SDS011;13772;52.996;9.124;2023-12-22T17:32:22;5.65;;;1.17;;
25980;SDS011;13772;52.996;9.124;2023-12-22T17:34:47;1.63;;;0.63;;
25980;SDS011;13772;52.996;9.124;2023-12-22T17:37:13;4.18;;;0.70;;
25980;SDS011;13772;52.996;9.124;2023-12-22T17:39:38;5.97;;;2.00;;
25980;SDS011;13772;52.996;9.124;2023-12-22T17:42:03;1.80;;;0.60;;
25980;SDS011;13772;52.996;9.124;2023-12-22T17:44:28;5.97;;;1.00;;
25980;SDS011;13772;52.996;9.124;2023-12-22T17:46:54;2.63;;;0.85;;
25980;SDS011;13772;52.996;9.124;2023-12-22T17:49:19;4.22;;;0.98;;
25980;SDS011;13772;52.996;9.124;2023-12-22T17:51:44;3.85;;;1.10;;
25980;SDS011;13772;52.996;9.124;2023-12-22T17:54:10;3.03;;;0.90;;
25980;SDS011;13772;52.996;9.124;2023-12-22T17:56:35;5.05;;;1.00;;
25980;SDS011;13772;52.996;9.124;2023-12-22T17:59:00;6.47;;;1.40;;
25980;SDS011;13772;52.996;9.124;2023-12-22T18:01:25;6.47;;;1.13;;
25980;SDS011;13772;52.996;9.124;2023-12-22T18:03:50;3.55;;;0.80;;
25980;SDS011;13772;52.996;9.124;2023-12-22T18:06:19;5.60;;;1.13;;
25980;SDS011;13772;52.996;9.124;2023-12-22T18:08:46;5.45;;;1.40;;
25980;SDS011;13772;52.996;9.124;2023-12-22T18:11:11;2.03;;;0.77;;
25980;SDS011;13772;52.996;9.124;2023-12-22T18:13:36;4.82;;;0.93;;
25980;SDS011;13772;52.996;9.124;2023-12-22T18:16:01;3.22;;;0.80;;
25980;SDS011;13772;52.996;9.124;2023-12-22T18:18:26;2.45;;;0.90;;
25980;SDS011;13772;52.996;9.124;2023-12-22T18:20:52;4.50;;;0.90;;
25980;SDS011;13772;52.996;9.124;2023-12-22T18:23:17;5.47;;;2.30;;
25980;SDS011;13772;52.996;9.124;2023-12-22T18:25:44;4.82;;;0.80;;
25980;SDS011;13772;52.996;9.124;2023-12-22T18:28:10;3.90;;;0.98;;
25980;SDS011;13772;52.996;9.124;2023-12-22T18:30:35;2.60;;;0.85;;
25980;SDS011;13772;52.996;9.124;2023-12-22T18:33:00;2.28;;;0.90;;
25980;SDS011;13772;52.996;9.124;2023-12-22T18:35:25;2.58;;;0.70;;
25980;SDS011;13772;52.996;9.124;2023-12-22T18:37:51;3.88;;;0.75;;
25980;SDS011;13772;52.996;9.124;2023-12-22T18:40:16;2.78;;;0.93;;
25980;SDS011;13772;52.996;9.124;2023-12-22T18:42:41;4.53;;;0.70;;
25980;SDS011;13772;52.996;9.124;2023-12-22T18:45:06;4.82;;;0.90;;
25980;SDS011;13772;52.996;9.124;2023-12-22T18:47:31;2.97;;;1.27;;
25980;SDS011;13772;52.996;9.124;2023-12-22T18:49:57;2.10;;;1.17;;
25980;SDS011;13772;52.996;9.124;2023-12-22T18:52:22;3.53;;;1.08;;
25980;SDS011;13772;52.996;9.124;2023-12-22T18:54:47;2.38;;;1.10;;
25980;SDS011;13772;52.996;9.124;2023-12-22T18:57:12;4.00;;;1.30;;
25980;SDS011;13772;52.996;9.124;2023-12-22T18:59:38;3.35;;;1.20;;
25980;SDS011;13772;52.996;9.124;2023-12-22T19:02:03;4.65;;;1.40;;
25980;SDS011;13772;52.996;9.124;2023-12-22T19:04:29;2.33;;;1.48;;
25980;SDS011;13772;52.996;9.124;2023-12-22T19:06:54;2.97;;;1.27;;
25980;SDS011;13772;52.996;9.124;2023-12-22T19:09:19;3.75;;;1.40;;
25980;SDS011;13772;52.996;9.124;2023-12-22T19:11:44;3.50;;;1.48;;
25980;SDS011;13772;52.996;9.124;2023-12-22T19:14:10;3.85;;;1.73;;
25980;SDS011;13772;52.996;9.124;2023-12-22T19:16:35;4.10;;;1.25;;
25980;SDS011;13772;52.996;9.124;2023-12-22T19:19:01;4.07;;;0.88;;
25980;SDS011;13772;52.996;9.124;2023-12-22T19:21:26;2.58;;;1.00;;
25980;SDS011;13772;52.996;9.124;2023-12-22T19:23:52;3.58;;;1.20;;
25980;SDS011;13772;52.996;9.124;2023-12-22T19:26:17;5.05;;;1.10;;
25980;SDS011;13772;52.996;9.124;2023-12-22T19:28:42;2.53;;;1.08;;
25980;SDS011;13772;52.996;9.124;2023-12-22T19:31:08;3.45;;;1.00;;
25980;SDS011;13772;52.996;9.124;2023-12-22T19:33:33;4.40;;;1.25;;
25980;SDS011;13772;52.996;9.124;2023-12-22T19:35:58;4.18;;;1.10;;
25980;SDS011;13772;52.996;9.124;2023-12-22T19:38:23;2.83;;;0.80;;
25980;SDS011;13772;52.996;9.124;2023-12-22T19:40:48;3.63;;;1.17;;
25980;SDS011;13772;52.996;9.124;2023-12-22T19:43:14;4.35;;;1.20;;
25980;SDS011;13772;52.996;9.124;2023-12-22T19:45:40;3.63;;;0.95;;
25980;SDS011;13772;52.996;9.124;2023-12-22T19:48:05;3.95;;;1.00;;
25980;SDS011;13772;52.996;9.124;2023-12-22T19:50:31;3.30;;;0.98;;
25980;SDS011;13772;52.996;9.124;2023-12-22T19:52:57;7.80;;;1.25;;
25980;SDS011;13772;52.996;9.124;2023-12-22T19:55:24;7.22;;;1.13;;
25980;SDS011;13772;52.996;9.124;2023-12-22T19:57:51;2.38;;;1.20;;
25980;SDS011;13772;52.996;9.124;2023-12-22T20:00:17;2.90;;;1.00;;
25980;SDS011;13772;52.996;9.124;2023-12-22T20:02:42;2.08;;;0.90;;
25980;SDS011;13772;52.996;9.124;2023-12-22T20:05:07;4.93;;;1.38;;
25980;SDS011;13772;52.996;9.124;2023-12-22T20:07:33;5.05;;;1.23;;
25980;SDS011;13772;52.996;9.124;2023-12-22T20:09:58;8.55;;;1.90;;
25980;SDS011;13772;52.996;9.124;2023-12-22T20:12:23;5.97;;;1.67;;
25980;SDS011;13772;52.996;9.124;2023-12-22T20:14:48;4.47;;;1.65;;
25980;SDS011;13772;52.996;9.124;2023-12-22T20:17:14;3.58;;;1.73;;
25980;SDS011;13772;52.996;9.124;2023-12-22T20:19:39;5.53;;;1.90;;
25980;SDS011;13772;52.996;9.124;2023-12-22T20:22:04;5.55;;;1.70;;
25980;SDS011;13772;52.996;9.124;2023-12-22T20:24:29;4.32;;;1.48;;
25980;SDS011;13772;52.996;9.124;2023-12-22T20:26:54;4.03;;;1.70;;
25980;SDS011;13772;52.996;9.124;2023-12-22T20:29:20;6.90;;;1.90;;
25980;SDS011;13772;52.996;9.124;2023-12-22T20:31:45;4.45;;;1.17;;
25980;SDS011;13772;52.996;9.124;2023-12-22T20:34:10;3.28;;;1.30;;
25980;SDS011;13772;52.996;9.124;2023-12-22T20:36:35;4.38;;;1.05;;
25980;SDS011;13772;52.996;9.124;2023-12-22T20:39:01;4.38;;;1.27;;
25980;SDS011;13772;52.996;9.124;2023-12-22T20:41:26;3.22;;;1.35;;
25980;SDS011;13772;52.996;9.124;2023-12-22T20:43:51;7.57;;;2.20;;
25980;SDS011;13772;52.996;9.124;2023-12-22T20:46:17;4.43;;;1.10;;
25980;SDS011;13772;52.996;9.124;2023-12-22T20:48:42;3.47;;;0.90;;
25980;SDS011;13772;52.996;9.124;2023-12-22T20:51:07;4.80;;;1.33;;
25980;SDS011;13772;52.996;9.124;2023-12-22T20:53:32;4.85;;;0.90;;
25980;SDS011;13772;52.996;9.124;2023-12-22T20:55:59;3.00;;;1.35;;
25980;SDS011;13772;52.996;9.124;2023-12-22T20:58:24;4.38;;;1.75;;
25980;SDS011;13772;52.996;9.124;2023-12-22T21:00:49;3.80;;;0.75;;
25980;SDS011;13772;52.996;9.124;2023-12-22T21:03:15;5.95;;;1.40;;
25980;SDS011;13772;52.996;9.124;2023-12-22T21:05:41;5.45;;;1.45;;
25980;SDS011;13772;52.996;9.124;2023-12-22T21:08:06;8.05;;;1.20;;
25980;SDS011;13772;52.996;9.124;2023-12-22T21:10:31;7.05;;;1.23;;
25980;SDS011;13772;52.996;9.124;2023-12-22T21:12:58;9.07;;;1.00;;
25980;SDS011;13772;52.996;9.124;2023-12-22T21:15:24;5.43;;;1.25;;
25980;SDS011;13772;52.996;9.124;2023-12-22T21:17:49;5.25;;;0.93;;
25980;SDS011;13772;52.996;9.124;2023-12-22T21:20:15;5.07;;;1.10;;
25980;SDS011;13772;52.996;9.124;2023-12-22T21:22:40;4.75;;;0.80;;
25980;SDS011;13772;52.996;9.124;2023-12-22T21:25:05;7.35;;;1.30;;
25980;SDS011;13772;52.996;9.124;2023-12-22T21:27:31;9.02;;;1.17;;
25980;SDS011;13772;52.996;9.124;2023-12-22T21:29:56;7.07;;;1.30;;
25980;SDS011;13772;52.996;9.124;2023-12-22T21:32:21;3.78;;;1.20;;
25980;SDS011;13772;52.996;9.124;2023-12-22T21:34:47;9.50;;;1.10;;
25980;SDS011;13772;52.996;9.124;2023-12-22T21:37:12;10.30;;;1.20;;
25980;SDS011;13772;52.996;9.124;2023-12-22T21:39:37;14.63;;;1.33;;
25980;SDS011;13772;52.996;9.124;2023-12-22T21:42:03;6.95;;;1.80;;
25980;SDS011;13772;52.996;9.124;2023-12-22T21:44:31;10.50;;;1.40;;
25980;SDS011;13772;52.996;9.124;2023-12-22T21:46:56;8.98;;;1.55;;
25980;SDS011;13772;52.996;9.124;2023-12-22T21:49:21;8.35;;;2.13;;
25980;SDS011;13772;52.996;9.124;2023-12-22T21:51:47;6.93;;;1.40;;
25980;SDS011;13772;52.996;9.124;2023-12-22T21:54:12;6.43;;;1.50;;
25980;SDS011;13772;52.996;9.124;2023-12-22T21:56:37;11.93;;;1.50;;
25980;SDS011;13772;52.996;9.124;2023-12-22T21:59:03;10.23;;;1.48;;
25980;SDS011;13772;52.996;9.124;2023-12-22T22:01:28;9.93;;;2.25;;
25980;SDS011;13772;52.996;9.124;2023-12-22T22:03:53;14.77;;;1.60;;
25980;SDS011;13772;52.996;9.124;2023-12-22T22:06:19;13.50;;;1.83;;
25980;SDS011;13772;52.996;9.124;2023-12-22T22:08:44;9.20;;;1.70;;
25980;SDS011;13772;52.996;9.124;2023-12-22T22:11:09;7.68;;;1.95;;
25980;SDS011;13772;52.996;9.124;2023-12-22T22:13:34;8.60;;;1.95;;
25980;SDS011;13772;52.996;9.124;2023-12-22T22:15:59;10.63;;;1.67;;
25980;SDS011;13772;52.996;9.124;2023-12-22T22:18:25;11.23;;;1.70;;
25980;SDS011;13772;52.996;9.124;2023-12-22T22:20:50;9.85;;;2.25;;
25980;SDS011;13772;52.996;9.124;2023-12-22T22:23:15;14.93;;;2.28;;
25980;SDS011;13772;52.996;9.124;2023-12-22T22:25:40;13.23;;;2.15;;
25980;SDS011;13772;52.996;9.124;2023-12-22T22:28:05;19.05;;;2.22;;
25980;SDS011;13772;52.996;9.124;2023-12-22T22:30:32;16.85;;;2.10;;
25980;SDS011;13772;52.996;9.124;2023-12-22T22:32:57;9.93;;;1.95;;
25980;SDS011;13772;52.996;9.124;2023-12-22T22:35:23;15.73;;;2.67;;
25980;SDS011;13772;52.996;9.124;2023-12-22T22:37:48;20.38;;;2.53;;
25980;SDS011;13772;52.996;9.124;2023-12-22T22:40:13;15.40;;;2.50;;
25980;SDS011;13772;52.996;9.124;2023-12-22T22:42:38;12.55;;;2.35;;
25980;SDS011;13772;52.996;9.124;2023-12-22T22:45:04;13.85;;;2.33;;
25980;SDS011;13772;52.996;9.124;2023-12-22T22:47:31;9.82;;;1.63;;
25980;SDS011;13772;52.996;9.124;2023-12-22T22:49:56;14.32;;;2.17;;
25980;SDS011;13772;52.996;9.124;2023-12-22T22:52:21;11.73;;;2.47;;
25980;SDS011;13772;52.996;9.124;2023-12-22T22:54:46;11.95;;;2.13;;
